Station: Mackay  

  Atmospheric Gas Attenuation - ITU Rec 676-11   ----------------- dB/100km -----------------
Date Time Temp RH % AH g/m3 Dew Point Wind Direction Speed kph Gust kph Barometer mB Rainfall Since 9am 24GHz 47GHz 76GHz 122GHz 134GHz 241GHz
02/09 16:06 22 76 14.75 17.6 17 22 1020 0 32.2 33.8 60.9 160.6 170.0 589.7
02/09 16:00 22 74 14.36 17.2 17 24 1019.9 0 31.3 33.1 59.1 156.0 164.4 570.2
02/09 15:50 21.9 75 14.47 17.3 19 30 1019.9 0 31.6 33.4 59.7 157.5 166.2 576.4
02/09 15:40 22.3 73 14.41 17.2 17 26 1020 0 31.4 33.1 59.1 156.0 164.5 570.5
02/09 15:30 22.3 73 14.41 17.2 15 24 1020.1 0 31.4 33.1 59.1 156.0 164.5 570.5
02/09 15:20 22.3 73 14.41 17.2 15 22 1020.2 0 31.4 33.1 59.1 156.1 164.5 570.6
02/09 15:10 22.2 74 14.53 17.3 15 24 1020.3 0 31.7 33.4 59.8 157.7 166.5 577.3
02/09 15:00 22.2 76 14.92 17.8 15 24 1020.4 0 32.5 34.1 61.5 162.2 172.1 596.9
02/09 14:50 22.5 74 14.78 17.6 15 22 1020.5 0 32.2 33.7 60.6 160.0 169.4 587.6
02/09 14:40 22.3 75 14.81 17.7 13 22 1020.6 0 32.3 33.8 60.9 160.8 170.3 590.7
02/09 14:30 22.2 74 14.53 17.3 15 20 1020.7 0 31.7 33.4 59.8 157.7 166.5 577.5
02/09 14:20 22.6 74 14.86 17.7 13 22 1020.8 0 32.3 33.8 60.9 160.8 170.4 591.0
02/09 14:06 22.5 74 14.78 17.6 11 15 1020.9 0 32.2 33.7 60.6 160.0 169.5 587.8
02/09 14:00 22.7 74 14.95 17.8 15 24 1020.9 0 32.5 33.9 61.2 161.6 171.5 594.8
02/09 13:50 22.7 74 14.95 17.8 15 19 1021 0 32.5 33.9 61.2 161.6 171.5 594.8
02/09 13:40 23.2 71 14.76 17.7 13 20 1021.2 0 32.1 33.4 60.0 158.4 167.7 581.6
02/09 13:30 23.7 72 15.4 18.4 15 24 1021.3 0 33.4 34.4 62.4 164.8 175.7 609.6
02/09 13:20 23.1 71 14.68 17.6 15 24 1021.4 0 31.9 33.3 59.8 157.7 166.8 578.5
02/09 13:06 23 72 14.8 17.7 17 20 1021.6 0 32.2 33.6 60.4 159.3 168.7 585.3
02/09 13:00 22.7 73 14.75 17.6 13 22 1021.7 0 32.1 33.6 60.4 159.4 168.7 585.1
02/09 12:50 23.1 70 14.47 17.3 15 20 1021.9 0 31.5 33.0 58.9 155.4 163.9 568.3
02/09 12:40 22.6 71 14.26 17.1 13 22 1022.1 0 31.1 32.8 58.4 154.0 162.0 561.7
02/09 12:30 23 72 14.8 17.7 13 20 1022.3 0 32.2 33.6 60.4 159.4 168.8 585.6
02/09 12:20 22.5 72 14.38 17.2 13 24 1022.4 0 31.3 33.1 59.0 155.6 163.9 568.5
02/09 12:10 22.8 71 14.43 17.3 13 20 1022.7 0 31.4 33.1 59.0 155.6 164.0 568.9
02/09 12:00 23.6 69 14.67 17.6 13 20 1022.9 0 31.9 33.2 59.4 156.8 165.7 574.9
02/09 11:50 23.2 70 14.55 17.4 11 19 1023.1 0 31.6 33.1 59.2 156.2 164.9 572.0
02/09 11:40 22.9 67 13.69 16.4 13 20 1023.3 0 29.8 31.8 55.8 147.1 153.5 532.3
02/09 11:30 23.1 69 14.26 17.1 13 20 1023.5 0 31.0 32.7 58.1 153.2 161.1 558.7
02/09 11:20 22.6 69 13.86 16.6 11 19 1023.7 0 30.2 32.2 56.7 149.6 156.6 542.8
02/09 11:10 23.3 69 14.43 17.3 11 22 1023.8 0 31.4 32.9 58.7 154.8 163.1 565.7
02/09 11:00 23.2 71 14.76 17.7 15 22 1024 0 32.1 33.5 60.2 158.8 168.0 582.8
02/09 10:50 23.2 73 15.18 18.1 15 24 1024.1 0 33.0 34.3 62.0 163.7 174.0 603.8
02/09 10:40 23.5 70 14.8 17.7 13 20 1024.3 0 32.1 33.5 60.1 158.7 168.0 582.6
02/09 10:30 23 73 15 17.9 13 20 1024.5 0 32.6 34.1 61.4 162.1 172.0 596.5
02/09 10:20 23.1 74 15.3 18.2 13 22 1024.5 0 33.2 34.5 62.7 165.4 176.0 610.8
02/09 10:10 22.8 75 15.24 18.1 13 19 1024.6 0 33.1 34.6 62.6 165.3 175.9 610.2
02/09 10:00 23.2 75 15.59 18.5 13 20 1024.7 0 33.8 35.0 63.9 168.6 180.0 624.7
02/09 09:50 23 73 15 17.9 11 19 1024.7 0 32.6 34.1 61.4 162.1 172.0 596.6
02/09 09:40 22.8 77 15.65 18.6 15 24 1024.7 0 34.0 35.3 64.5 170.2 181.9 631.1
02/09 09:30 22.3 76 15.01 17.9 15 22 1024.7 0 32.7 34.4 62.0 163.7 173.7 602.5
02/09 09:20 22.2 75 14.72 17.6 13 19 1024.7 0 32.1 33.9 60.8 160.5 169.7 588.7
02/09 09:10 21.9 77 14.86 17.7 13 19 1024.7 0 32.4 34.3 61.7 162.8 172.4 598.1
02/09 09:00 21.9 78 15.05 17.9 11 20 1024.7 0 32.8 34.6 62.5 165.0 175.2 607.7
02/09 08:50 21.5 79 14.9 17.7 13 20 1024.7 0 32.5 34.5 62.2 164.1 173.9 603.2
02/09 08:40 21.1 79 14.55 17.3 13 20 1024.6 0 31.8 34.0 60.9 160.8 169.7 588.5
02/09 08:30 20.7 82 14.76 17.5 13 19 1024.5 0 32.3 34.5 62.2 164.1 173.7 602.3
02/09 08:20 19.9 82 14.09 16.7 11 17 1024.4 0 30.9 33.7 59.8 157.7 165.6 574.1
02/09 08:10 19.8 85 14.52 17.2 9 13 1024.4 0 31.8 34.5 61.8 163.1 172.2 596.9
02/09 08:00 18.9 87 14.09 16.7 11 17 1024.3 0 31.0 34.0 60.6 159.8 167.8 581.6
02/09 07:50 18.4 87 13.68 16.2 13 20 1024.2 0 30.1 33.5 59.1 155.9 162.9 564.1
02/09 07:40 17.9 90 13.74 16.2 11 15 1024.1 0 30.3 33.8 59.8 157.6 164.8 570.9
02/09 07:30 17.3 92 13.55 16 9 13 1024.1 0 30.0 33.7 59.4 156.5 163.3 565.5
02/09 07:20 16.6 93 13.14 15.5 9 15 1024 0 29.1 33.2 58.0 153.0 158.7 549.3
02/09 07:10 16.2 95 13.1 15.4 11 15 1023.9 0 29.1 33.3 58.2 153.3 158.9 550.0
02/09 07:00 15.8 95 12.79 15 11 15 1023.8 0 28.4 32.9 57.0 150.3 155.1 536.7
02/09 06:50 15.5 96 12.69 14.9 13 17 1023.7 0 28.2 32.8 56.8 149.7 154.2 533.5
02/09 06:40 15.3 96 12.54 14.7 13 15 1023.5 0 27.9 32.6 56.3 148.2 152.3 527.1
02/09 06:30 15.2 96 12.46 14.6 11 17 1023.5 0 27.8 32.5 56.0 147.4 151.4 523.6
02/09 06:20 15.2 96 12.46 14.6 11 15 1023.4 0 27.8 32.5 56.0 147.4 151.3 523.6
02/09 06:10 15.1 96 12.38 14.5 11 17 1023.2 0 27.6 32.4 55.7 146.6 150.3 520.0
02/09 06:00 15.2 96 12.46 14.6 11 15 1023.2 0 27.8 32.5 55.9 147.4 151.3 523.5
02/09 05:50 15.3 96 12.54 14.7 11 15 1023.1 0 27.9 32.6 56.2 148.2 152.3 526.9
02/09 05:40 15.3 96 12.54 14.7 11 15 1023 0 27.9 32.6 56.2 148.1 152.3 526.9
02/09 05:30 15.4 95 12.48 14.6 11 15 1023 0 27.8 32.4 55.9 147.2 151.2 523.1
02/09 05:20 15.5 95 12.56 14.7 11 15 1022.9 0 28.0 32.5 56.2 148.0 152.2 526.5
02/09 05:10 15.6 96 12.77 15 11 13 1022.8 0 28.4 32.9 57.0 150.3 155.1 536.7
02/09 05:00 15.5 95 12.56 14.7 11 15 1022.8 0 28.0 32.5 56.2 148.0 152.2 526.4
02/09 04:50 15.5 95 12.56 14.7 11 15 1022.7 0 28.0 32.5 56.2 148.0 152.1 526.4
02/09 04:40 15.6 95 12.63 14.8 11 13 1022.7 0 28.1 32.6 56.4 148.6 153.0 529.3
02/09 04:30 15.7 95 12.71 14.9 11 15 1022.8 0 28.3 32.7 56.7 149.4 154.0 532.8
02/09 04:20 15.7 95 12.71 14.9 9 13 1022.8 0 28.3 32.7 56.7 149.4 154.0 532.8
02/09 04:10 15.8 95 12.79 15 9 11 1022.8 0 28.4 32.8 57.0 150.2 155.0 536.3
02/09 04:00 15.9 95 12.87 15.1 9 13 1022.8 0 28.6 32.9 57.3 150.9 156.0 539.7
02/09 03:50 15.9 94 12.73 14.9 9 13 1022.7 0 28.3 32.7 56.6 149.2 153.9 532.4
02/09 03:40 16 94 12.81 15 9 13 1022.7 0 28.5 32.8 56.9 150.0 154.8 535.9
02/09 03:30 15.9 94 12.73 14.9 9 13 1022.7 0 28.3 32.7 56.6 149.2 153.9 532.4
02/09 03:20 16 94 12.81 15 9 13 1022.8 0 28.5 32.8 56.9 150.0 154.9 535.9
02/09 03:10 16.1 93 12.75 15 9 13 1022.9 0 28.3 32.6 56.6 149.1 153.8 532.2
02/09 03:00 16.1 93 12.75 15 7 11 1023 0 28.3 32.6 56.6 149.1 153.8 532.2
02/09 02:50 16.2 93 12.82 15.1 7 13 1023.1 0 28.5 32.7 56.8 149.8 154.6 535.2
02/09 02:40 16.3 93 12.9 15.2 9 13 1023.1 0 28.6 32.8 57.1 150.6 155.6 538.6
02/09 02:30 16.3 92 12.76 15 9 13 1023.1 0 28.3 32.6 56.5 148.9 153.5 531.4
02/09 02:20 16.6 91 12.85 15.1 9 15 1023.2 0 28.5 32.6 56.7 149.4 154.3 533.9
02/09 02:10 16.8 90 12.87 15.2 7 15 1023.3 0 28.5 32.6 56.6 149.2 154.2 533.6
02/09 02:00 17 90 13.02 15.3 7 13 1023.4 0 28.8 32.8 57.2 150.7 156.0 540.0
02/09 01:50 17.3 89 13.11 15.5 2 7 1023.4 0 29.0 32.9 57.3 151.1 156.7 542.5
02/09 01:40 17.1 89 12.95 15.3 4 11 1023.5 0 28.7 32.6 56.8 149.6 154.7 535.7
02/09 01:30 17.5 88 13.12 15.5 7 11 1023.5 0 29.0 32.8 57.2 150.9 156.4 541.6
02/09 01:20 17.4 89 13.19 15.6 6 11 1023.5 0 29.2 33.0 57.6 151.9 157.7 545.9
02/09 01:10 17.6 85 12.75 15 4 9 1023.6 0 28.2 32.1 55.5 146.3 150.8 522.1
02/09 01:00 18.6 80 12.73 15.1 6 13 1023.8 0 28.1 31.7 54.7 144.2 148.6 514.5
02/09 00:50 19.9 77 13.23 15.7 9 17 1023.8 0 29.1 32.1 56.0 147.6 153.2 530.5
02/09 00:40 20 75 12.96 15.4 9 19 1023.8 0 28.5 31.6 54.8 144.3 149.1 516.5
02/09 00:30 20 76 13.13 15.6 9 15 1023.8 0 28.9 31.9 55.5 146.2 151.5 524.9
02/09 00:20 19.9 77 13.23 15.7 9 15 1023.9 0 29.1 32.1 56.0 147.6 153.2 530.6
02/09 00:10 19.9 79 13.57 16.2 9 20 1023.9 0 29.8 32.7 57.5 151.5 158.0 547.6
02/09 00:00 20 81 14 16.6 9 17 1024 0 30.7 33.4 59.3 156.4 164.1 568.6
01/09 23:50 20.1 81 14.08 16.7 11 19 1024 0 30.9 33.5 59.6 157.2 165.0 571.9
01/09 23:40 19.9 82 14.09 16.7 9 17 1024.1 0 30.9 33.6 59.8 157.7 165.6 574.0

Last Refresh: 02-Sep-2026 15:49:37

Bureau of Meteorology